Time;durP1;ratioP1;P1;durP2;ratioP2;P2;SDS_P1;SDS_P2;PMS_P1;PMS_P2;Temp;Humidity;BMP_temperature;BMP_pressure;BME280_temperature;BME280_humidity;BME280_pressure;Samples;Min_cycle;Max_cycle;Signal;HPM_P1;HPM_P2
2021/01/25 00:00:14;;;;;;;11.50;5.60;;;1.10;93.50;;;;;;4976418;28;20029;-92
2021/01/25 00:02:40;;;;;;;12.65;6.20;;;1.10;93.60;;;;;;4974349;28;20034;-90
2021/01/25 00:05:07;;;;;;;10.40;6.05;;;1.20;93.60;;;;;;4973243;28;20239;-91
2021/01/25 00:07:33;;;;;;;13.63;5.50;;;1.20;93.70;;;;;;4971805;28;20062;-91
2021/01/25 00:10:00;;;;;;;9.88;6.10;;;1.20;93.80;;;;;;4969794;28;20058;-90
2021/01/25 00:12:26;;;;;;;10.60;4.88;;;1.20;93.80;;;;;;4971522;28;20019;-91
2021/01/25 00:14:52;;;;;;;7.57;3.47;;;1.20;93.80;;;;;;4964355;28;20034;-91
2021/01/25 00:17:17;;;;;;;9.05;4.45;;;1.20;93.80;;;;;;4971243;28;20035;-91
2021/01/25 00:19:43;;;;;;;5.90;3.42;;;1.20;93.90;;;;;;4975060;28;20084;-92
2021/01/25 00:22:08;;;;;;;6.05;3.33;;;1.20;93.90;;;;;;4986874;28;20031;-92
2021/01/25 00:24:34;;;;;;;6.55;3.22;;;1.30;93.90;;;;;;4969741;28;20033;-89
2021/01/25 00:26:59;;;;;;;6.82;3.60;;;1.30;93.90;;;;;;4968018;28;20064;-93
2021/01/25 00:29:25;;;;;;;6.82;3.65;;;1.30;93.90;;;;;;4969652;28;20109;-91
2021/01/25 00:31:50;;;;;;;7.38;3.10;;;1.30;93.90;;;;;;4969401;28;20502;-92
2021/01/25 00:34:16;;;;;;;5.70;3.35;;;1.30;93.90;;;;;;4968128;28;20029;-92
2021/01/25 00:36:41;;;;;;;8.57;3.70;;;1.40;94.00;;;;;;4988413;28;20027;-92
2021/01/25 00:39:07;;;;;;;7.38;3.00;;;1.40;94.00;;;;;;4971866;28;20066;-90
2021/01/25 00:41:32;;;;;;;9.88;3.83;;;1.40;94.00;;;;;;4969577;28;20026;-90
2021/01/25 00:43:58;;;;;;;5.75;3.13;;;1.40;94.00;;;;;;4973043;28;20031;-90
2021/01/25 00:46:24;;;;;;;8.18;4.22;;;1.40;94.10;;;;;;4971720;28;20558;-91
2021/01/25 00:48:50;;;;;;;8.25;4.07;;;1.40;94.10;;;;;;4970158;28;20061;-90
2021/01/25 00:51:15;;;;;;;10.70;4.07;;;1.40;94.10;;;;;;4971012;28;20168;-91
2021/01/25 00:53:41;;;;;;;7.93;3.95;;;1.40;94.10;;;;;;4977342;28;20085;-92
2021/01/25 00:56:06;;;;;;;9.07;4.85;;;1.50;94.10;;;;;;4969839;28;20027;-91
2021/01/25 00:58:32;;;;;;;7.25;3.53;;;1.50;94.10;;;;;;4974078;28;20041;-90
2021/01/25 01:00:58;;;;;;;6.50;4.00;;;1.40;94.10;;;;;;4969616;28;20026;-90
2021/01/25 01:03:23;;;;;;;8.45;3.90;;;1.40;94.10;;;;;;4969170;28;20030;-91
2021/01/25 01:05:49;;;;;;;8.88;4.25;;;1.40;94.10;;;;;;4974637;28;20572;-90
2021/01/25 01:08:15;;;;;;;7.13;4.18;;;1.40;94.20;;;;;;4970636;28;20057;-90
2021/01/25 01:10:41;;;;;;;6.60;4.22;;;1.50;94.20;;;;;;4973953;28;20030;-90
2021/01/25 01:13:07;;;;;;;6.70;4.00;;;1.40;94.20;;;;;;4969542;28;20056;-90
2021/01/25 01:15:32;;;;;;;10.55;5.63;;;1.40;94.10;;;;;;4969549;28;20076;-91
2021/01/25 01:17:58;;;;;;;13.15;6.03;;;1.40;94.20;;;;;;4971207;28;20479;-91
2021/01/25 01:20:23;;;;;;;14.45;6.40;;;1.40;94.20;;;;;;4973312;28;20027;-91
2021/01/25 01:22:49;;;;;;;18.27;8.93;;;1.40;94.20;;;;;;4974227;28;20130;-91
2021/01/25 01:25:14;;;;;;;12.95;7.93;;;1.40;94.20;;;;;;4972054;28;20027;-92
2021/01/25 01:27:40;;;;;;;15.15;9.07;;;1.40;94.20;;;;;;4969801;28;20042;-92
2021/01/25 01:30:06;;;;;;;19.67;10.05;;;1.40;94.20;;;;;;4962847;28;20031;-92
2021/01/25 01:32:32;;;;;;;14.98;9.07;;;1.40;94.30;;;;;;4965821;28;20031;-90
2021/01/25 01:34:57;;;;;;;17.80;9.30;;;1.40;94.30;;;;;;4977183;28;20022;-91
2021/01/25 01:37:23;;;;;;;15.15;8.65;;;1.30;94.30;;;;;;4970963;28;20560;-91
2021/01/25 01:39:48;;;;;;;20.25;10.13;;;1.40;94.30;;;;;;4976651;28;20157;-91
2021/01/25 01:42:15;;;;;;;16.25;8.57;;;1.40;94.30;;;;;;4971457;28;20019;-91
2021/01/25 01:44:41;;;;;;;17.88;11.48;;;1.40;94.30;;;;;;4979712;28;20026;-91
2021/01/25 01:47:08;;;;;;;20.10;10.10;;;1.40;94.30;;;;;;4972545;28;20027;-90
2021/01/25 01:49:34;;;;;;;19.80;11.02;;;1.40;94.30;;;;;;4965009;28;20027;-90
2021/01/25 01:52:00;;;;;;;21.10;10.93;;;1.40;94.40;;;;;;4970985;28;20041;-90
2021/01/25 01:54:25;;;;;;;18.10;9.38;;;1.40;94.40;;;;;;4970696;28;20030;-92
2021/01/25 01:56:51;;;;;;;19.38;11.35;;;1.40;94.40;;;;;;4969890;28;20031;-91
2021/01/25 01:59:17;;;;;;;20.77;11.25;;;1.40;94.40;;;;;;4973403;28;20384;-93
2021/01/25 02:01:42;;;;;;;18.48;10.90;;;1.40;94.40;;;;;;4969931;28;20474;-91
2021/01/25 02:04:10;;;;;;;22.13;12.52;;;1.40;94.50;;;;;;4971389;28;20077;-91
2021/01/25 02:06:36;;;;;;;24.45;13.07;;;1.40;94.50;;;;;;4977534;28;20433;-91
2021/01/25 02:09:04;;;;;;;18.95;11.35;;;1.40;94.50;;;;;;4969050;28;20114;-90
2021/01/25 02:11:32;;;;;;;23.60;11.35;;;1.40;94.50;;;;;;4975492;28;20042;-91
2021/01/25 02:13:59;;;;;;;21.85;12.35;;;1.40;94.50;;;;;;4970032;28;20505;-90
2021/01/25 02:16:25;;;;;;;21.45;11.23;;;1.40;94.50;;;;;;4974670;28;20039;-92
2021/01/25 02:18:51;;;;;;;21.00;12.38;;;1.40;94.50;;;;;;4968289;28;20038;-89
2021/01/25 02:21:17;;;;;;;19.65;11.52;;;1.40;94.50;;;;;;4969758;28;20030;-91
2021/01/25 02:24:01;;;;;;;19.50;12.15;;;1.40;94.50;;;;;;4977165;28;20023;-91
2021/01/25 02:26:58;;;;;;;20.50;12.45;;;1.50;94.60;;;;;;4970385;28;20057;-90
2021/01/25 02:29:24;;;;;;;20.35;11.27;;;1.50;94.50;;;;;;4969360;28;20027;-90
2021/01/25 02:31:51;;;;;;;23.60;12.32;;;1.50;94.50;;;;;;4971203;28;20034;-89
2021/01/25 02:34:17;;;;;;;23.73;11.88;;;1.50;94.50;;;;;;4968556;28;20038;-91
2021/01/25 02:36:45;;;;;;;22.05;12.63;;;1.50;94.50;;;;;;4968457;28;20030;-90
2021/01/25 02:39:11;;;;;;;21.55;13.23;;;1.50;94.50;;;;;;4971048;28;20035;-89
2021/01/25 02:41:39;;;;;;;22.83;13.35;;;1.50;94.50;;;;;;4968391;28;20023;-91
2021/01/25 02:44:05;;;;;;;29.90;14.30;;;1.50;94.50;;;;;;4969072;28;20484;-91
2021/01/25 02:46:31;;;;;;;25.70;14.52;;;1.50;94.50;;;;;;4969433;28;20114;-89
2021/01/25 02:48:57;;;;;;;24.23;12.77;;;1.50;94.60;;;;;;4966712;28;20039;-90
2021/01/25 02:51:22;;;;;;;25.13;14.80;;;1.50;94.60;;;;;;4972690;28;20031;-90
2021/01/25 02:53:49;;;;;;;26.08;14.90;;;1.50;94.60;;;;;;4971568;28;20034;-89
2021/01/25 02:56:15;;;;;;;27.15;16.60;;;1.40;94.50;;;;;;4969693;28;20029;-89
2021/01/25 02:58:42;;;;;;;26.67;15.48;;;1.40;94.50;;;;;;4971212;28;20074;-89
2021/01/25 03:01:07;;;;;;;28.33;15.82;;;1.40;94.50;;;;;;4977221;28;20031;-90
2021/01/25 03:03:35;;;;;;;25.75;15.65;;;1.40;94.50;;;;;;4982228;28;20037;-89
2021/01/25 03:06:00;;;;;;;28.10;15.63;;;1.40;94.60;;;;;;4976789;28;20034;-89
2021/01/25 03:08:27;;;;;;;23.90;15.48;;;1.30;94.60;;;;;;4976781;28;20031;-88
2021/01/25 03:10:54;;;;;;;27.05;15.63;;;1.40;94.60;;;;;;4970534;28;20030;-90
2021/01/25 03:13:25;;;;;;;30.42;17.45;;;1.30;94.60;;;;;;4974525;28;20035;-91
2021/01/25 03:15:54;;;;;;;26.95;16.02;;;1.30;94.60;;;;;;4964500;28;20018;-91
2021/01/25 03:18:21;;;;;;;33.33;16.30;;;1.30;94.70;;;;;;4969153;28;20042;-90
2021/01/25 03:20:48;;;;;;;29.23;17.13;;;1.30;94.70;;;;;;4967054;28;20387;-90
2021/01/25 03:23:14;;;;;;;33.67;17.35;;;1.40;94.70;;;;;;4975047;28;20042;-90
2021/01/25 03:25:39;;;;;;;30.33;16.52;;;1.40;94.70;;;;;;4972675;28;20046;-90
2021/01/25 03:28:05;;;;;;;29.80;16.20;;;1.40;94.70;;;;;;4971779;28;20388;-91
2021/01/25 03:30:30;;;;;;;30.83;17.52;;;1.40;94.70;;;;;;4971359;28;20035;-91
2021/01/25 03:32:56;;;;;;;29.65;16.67;;;1.40;94.70;;;;;;4979632;28;20517;-90
2021/01/25 03:35:21;;;;;;;30.10;17.35;;;1.40;94.70;;;;;;4969038;28;20049;-91
2021/01/25 03:37:47;;;;;;;29.05;17.38;;;1.40;94.70;;;;;;4973726;28;20030;-91
2021/01/25 03:40:13;;;;;;;31.83;17.50;;;1.40;94.70;;;;;;4970634;28;20030;-91
2021/01/25 03:42:38;;;;;;;34.05;18.38;;;1.40;94.80;;;;;;4959804;28;20080;-91
2021/01/25 03:45:05;;;;;;;28.65;17.23;;;1.30;94.80;;;;;;4973796;28;20445;-90
2021/01/25 03:47:30;;;;;;;32.45;18.00;;;1.40;94.80;;;;;;4967835;28;20030;-90
2021/01/25 03:49:56;;;;;;;33.30;16.65;;;1.40;94.80;;;;;;4969726;28;20041;-90
2021/01/25 03:52:22;;;;;;;33.22;19.10;;;1.40;94.80;;;;;;4975091;28;20026;-91
2021/01/25 03:54:48;;;;;;;28.38;16.33;;;1.40;94.80;;;;;;4976820;28;20562;-90
2021/01/25 03:57:13;;;;;;;28.58;17.83;;;1.40;94.80;;;;;;4965968;28;20118;-91
2021/01/25 03:59:39;;;;;;;30.60;17.88;;;1.40;94.80;;;;;;4963535;28;20081;-92
2021/01/25 04:02:05;;;;;;;37.35;19.27;;;1.40;94.90;;;;;;4969997;28;20038;-91
2021/01/25 04:04:31;;;;;;;29.45;16.92;;;1.40;94.90;;;;;;4970252;28;20039;-90
2021/01/25 04:06:56;;;;;;;29.38;17.73;;;1.40;94.90;;;;;;4969631;28;20034;-90
2021/01/25 04:09:22;;;;;;;35.05;18.83;;;1.40;94.90;;;;;;4970683;28;20395;-90
2021/01/25 04:11:47;;;;;;;34.30;18.40;;;1.50;94.90;;;;;;4968180;28;20076;-90
2021/01/25 04:14:12;;;;;;;29.48;17.65;;;1.40;94.80;;;;;;4976747;28;20023;-89
2021/01/25 04:16:38;;;;;;;42.88;20.88;;;1.40;94.90;;;;;;4976073;28;20088;-90
2021/01/25 04:19:07;;;;;;;34.90;19.63;;;1.40;94.80;;;;;;4968851;28;20110;-90
2021/01/25 04:21:33;;;;;;;41.63;21.95;;;1.40;94.80;;;;;;4964637;28;20023;-91
2021/01/25 04:23:59;;;;;;;36.78;20.92;;;1.40;94.80;;;;;;4983399;28;20027;-92
2021/01/25 04:26:24;;;;;;;33.95;20.13;;;1.40;94.80;;;;;;4977218;28;20039;-92
2021/01/25 04:28:51;;;;;;;40.30;21.63;;;1.40;94.80;;;;;;4969230;28;20034;-91
2021/01/25 04:31:16;;;;;;;41.67;22.27;;;1.30;94.80;;;;;;4960391;28;20031;-91
2021/01/25 04:33:42;;;;;;;41.13;22.42;;;1.30;94.80;;;;;;4966867;28;20029;-91
2021/01/25 04:36:08;;;;;;;40.25;22.38;;;1.30;94.80;;;;;;4970802;28;20027;-91
2021/01/25 04:38:34;;;;;;;42.40;22.13;;;1.20;94.80;;;;;;4968943;28;20042;-90
2021/01/25 04:41:01;;;;;;;39.65;22.30;;;1.20;94.80;;;;;;4967974;28;20061;-92
2021/01/25 04:43:27;;;;;;;40.55;22.83;;;1.20;94.80;;;;;;4982629;28;20058;-90
2021/01/25 04:45:54;;;;;;;44.38;23.48;;;1.20;94.80;;;;;;4971426;28;20026;-92
2021/01/25 04:48:21;;;;;;;42.55;21.92;;;1.20;94.80;;;;;;4969805;28;20035;-90
2021/01/25 04:50:49;;;;;;;40.22;22.73;;;1.20;94.80;;;;;;4969142;28;20033;-92
2021/01/25 04:53:15;;;;;;;41.92;23.27;;;1.20;94.80;;;;;;4968688;28;20062;-91
2021/01/25 04:55:42;;;;;;;40.63;21.88;;;1.20;94.90;;;;;;4966936;28;20101;-90
2021/01/25 04:58:08;;;;;;;38.75;22.63;;;1.20;94.80;;;;;;4973222;28;20035;-91
2021/01/25 05:00:34;;;;;;;41.45;22.48;;;1.20;94.80;;;;;;4976266;28;20025;-90
2021/01/25 05:02:59;;;;;;;38.92;21.63;;;1.20;94.80;;;;;;4972212;28;20038;-90
2021/01/25 05:05:25;;;;;;;38.50;22.17;;;1.20;94.80;;;;;;4966843;28;20117;-90
2021/01/25 05:07:51;;;;;;;38.17;21.88;;;1.20;94.70;;;;;;4969752;28;20051;-91
2021/01/25 05:10:16;;;;;;;36.95;21.25;;;1.10;94.70;;;;;;4970734;28;20058;-89
2021/01/25 05:12:46;;;;;;;38.65;21.50;;;1.10;94.70;;;;;;4974441;28;20030;-89
2021/01/25 05:15:25;;;;;;;40.65;22.50;;;1.10;94.80;;;;;;4976142;28;20023;-89
2021/01/25 05:17:51;;;;;;;36.47;21.95;;;1.00;94.70;;;;;;4976158;28;20422;-90
2021/01/25 05:20:22;;;;;;;38.20;20.70;;;1.00;94.70;;;;;;4968747;28;20113;-90
2021/01/25 05:22:48;;;;;;;35.33;19.65;;;0.90;94.70;;;;;;4977121;28;20038;-90
2021/01/25 05:25:29;;;;;;;35.90;22.80;;;0.90;94.80;;;;;;5020077;28;20027;-89
2021/01/25 05:27:58;;;;;;;39.22;22.05;;;0.90;94.90;;;;;;4972177;28;20058;-89
2021/01/25 05:30:25;;;;;;;40.03;22.27;;;0.90;94.80;;;;;;4983255;28;20031;-90
2021/01/25 05:32:56;;;;;;;38.05;20.98;;;0.80;94.70;;;;;;4969714;28;20438;-88
2021/01/25 05:35:31;;;;;;;35.10;20.70;;;0.70;94.70;;;;;;4971494;28;20027;-90
2021/01/25 05:37:58;;;;;;;34.22;20.50;;;0.70;94.80;;;;;;4977780;28;20042;-89
2021/01/25 05:40:26;;;;;;;34.08;20.00;;;0.60;94.80;;;;;;4976501;28;20083;-89
2021/01/25 05:42:52;;;;;;;36.65;19.65;;;0.60;94.80;;;;;;4979293;28;20025;-90
2021/01/25 05:45:19;;;;;;;36.13;20.70;;;0.60;94.90;;;;;;4972320;28;20538;-90
2021/01/25 05:47:48;;;;;;;36.17;20.70;;;0.50;94.90;;;;;;4975169;28;20410;-89
2021/01/25 05:50:46;;;;;;;33.63;19.35;;;0.50;95.00;;;;;;4980965;28;20022;-89
2021/01/25 05:53:14;;;;;;;33.75;18.92;;;0.50;95.00;;;;;;4957762;28;20041;-89
2021/01/25 05:55:40;;;;;;;40.10;20.95;;;0.50;95.00;;;;;;4975107;28;20040;-90
2021/01/25 05:58:07;;;;;;;34.10;20.00;;;0.50;95.00;;;;;;4986649;28;20162;-89
2021/01/25 06:00:33;;;;;;;36.72;20.85;;;0.40;94.90;;;;;;4971482;28;20069;-89
2021/01/25 06:02:59;;;;;;;33.70;19.98;;;0.40;94.80;;;;;;4975126;28;20059;-89
2021/01/25 06:05:32;;;;;;;38.20;20.80;;;0.40;94.90;;;;;;4977636;28;20046;-90
2021/01/25 06:08:15;;;;;;;39.85;21.30;;;0.30;94.90;;;;;;5005700;28;20439;-89
2021/01/25 06:11:14;;;;;;;38.90;20.02;;;0.20;94.90;;;;;;4970828;28;20023;-89
2021/01/25 06:13:52;;;;;;;34.17;18.40;;;0.20;94.90;;;;;;4967075;28;20039;-89
2021/01/25 06:16:22;;;;;;;39.83;19.70;;;0.10;94.90;;;;;;4962801;28;20027;-89
2021/01/25 06:18:48;;;;;;;36.85;19.95;;;0.00;95.00;;;;;;4959402;28;20030;-89
2021/01/25 06:21:22;;;;;;;36.15;20.42;;;0.00;95.00;;;;;;4971828;28;20027;-88
2021/01/25 06:23:48;;;;;;;33.78;19.50;;;-0.10;95.00;;;;;;4973752;28;20076;-91
2021/01/25 06:26:16;;;;;;;41.72;22.60;;;-0.10;95.10;;;;;;4968016;28;20050;-91
2021/01/25 06:28:42;;;;;;;38.95;22.70;;;-0.10;95.30;;;;;;4970536;28;20414;-89
2021/01/25 06:31:09;;;;;;;40.58;21.52;;;-0.10;95.30;;;;;;4977163;28;20031;-90
2021/01/25 06:33:38;;;;;;;41.60;23.38;;;-0.10;95.30;;;;;;4976762;28;20101;-90
2021/01/25 06:36:09;;;;;;;40.38;22.40;;;-0.10;95.30;;;;;;4984903;28;20134;-91
2021/01/25 06:38:36;;;;;;;35.55;20.40;;;-0.10;95.20;;;;;;4970120;28;20053;-90
2021/01/25 06:41:10;;;;;;;43.15;22.92;;;-0.10;95.30;;;;;;4967679;28;20128;-90
2021/01/25 06:43:39;;;;;;;38.25;20.75;;;-0.20;95.30;;;;;;4968447;28;20102;-89
2021/01/25 06:46:05;;;;;;;38.47;21.10;;;-0.20;95.40;;;;;;4970295;28;20034;-90
2021/01/25 06:48:31;;;;;;;40.47;22.42;;;-0.20;95.40;;;;;;4971479;28;20035;-90
2021/01/25 06:51:00;;;;;;;47.65;23.55;;;-0.20;95.40;;;;;;4983914;28;20045;-90
2021/01/25 06:53:27;;;;;;;45.35;23.83;;;-0.30;95.30;;;;;;4969425;28;20045;-90
2021/01/25 06:56:00;;;;;;;38.53;21.52;;;-0.30;95.40;;;;;;4971872;28;20037;-90
2021/01/25 06:58:30;;;;;;;50.05;24.55;;;-0.30;95.40;;;;;;4984029;28;20113;-89
2021/01/25 07:00:57;;;;;;;39.95;23.45;;;-0.30;95.50;;;;;;4981037;28;20023;-90
2021/01/25 07:03:23;;;;;;;47.25;25.25;;;-0.30;95.50;;;;;;4968755;28;20073;-89
2021/01/25 07:05:56;;;;;;;44.85;24.00;;;-0.40;95.50;;;;;;4969381;28;20031;-90
2021/01/25 07:08:26;;;;;;;45.50;26.42;;;-0.40;95.60;;;;;;4977048;28;20084;-90
2021/01/25 07:10:56;;;;;;;45.20;23.63;;;-0.30;95.60;;;;;;4971009;28;20510;-89
2021/01/25 07:13:35;;;;;;;36.60;22.10;;;-0.30;95.50;;;;;;4982567;28;20038;-90
2021/01/25 07:16:02;;;;;;;44.60;24.52;;;-0.40;95.50;;;;;;4974837;28;20027;-89
2021/01/25 07:18:29;;;;;;;39.92;22.55;;;-0.40;95.50;;;;;;4957206;28;20039;-90
2021/01/25 07:20:56;;;;;;;43.17;24.45;;;-0.40;95.50;;;;;;4982185;28;20513;-90
2021/01/25 07:23:23;;;;;;;45.40;24.95;;;-0.50;95.50;;;;;;4978325;28;20030;-89
2021/01/25 07:25:56;;;;;;;50.08;25.58;;;-0.50;95.50;;;;;;4992703;28;20062;-89
2021/01/25 07:28:23;;;;;;;46.67;24.80;;;-0.50;95.60;;;;;;4974316;28;20054;-88
2021/01/25 07:30:49;;;;;;;45.50;26.20;;;-0.60;95.60;;;;;;4968586;28;20034;-89
2021/01/25 07:33:15;;;;;;;49.13;28.38;;;-0.60;95.60;;;;;;4965354;28;20042;-89
2021/01/25 07:35:40;;;;;;;49.50;28.08;;;-0.60;95.60;;;;;;4971475;28;20034;-89
2021/01/25 07:38:06;;;;;;;51.60;28.38;;;-0.60;95.70;;;;;;4972766;28;20463;-89
2021/01/25 07:40:32;;;;;;;48.10;26.45;;;-0.60;95.70;;;;;;4959941;28;20373;-90
2021/01/25 07:43:02;;;;;;;47.33;24.55;;;-0.60;95.70;;;;;;4963950;28;20147;-90
2021/01/25 07:45:27;;;;;;;48.40;26.25;;;-0.60;95.80;;;;;;4962352;28;20038;-90
2021/01/25 07:47:53;;;;;;;52.30;29.52;;;-0.60;96.10;;;;;;4959816;28;20027;-90
2021/01/25 07:50:18;;;;;;;49.88;28.60;;;-0.50;95.90;;;;;;4971199;28;20422;-89
2021/01/25 07:52:44;;;;;;;48.05;26.05;;;-0.50;95.70;;;;;;4986849;28;20122;-89
2021/01/25 07:55:11;;;;;;;49.40;27.60;;;-0.60;95.50;;;;;;4971402;28;20076;-89
2021/01/25 07:57:37;;;;;;;57.08;28.48;;;-0.60;95.60;;;;;;4971720;28;20127;-88
2021/01/25 08:00:16;;;;;;;47.35;27.63;;;-0.70;95.50;;;;;;4971369;28;20123;-88
2021/01/25 08:02:47;;;;;;;45.22;26.38;;;-0.80;95.60;;;;;;4972788;28;20026;-87
2021/01/25 08:05:14;;;;;;;52.55;26.88;;;-0.80;95.60;;;;;;4965001;28;20043;-88
2021/01/25 08:07:42;;;;;;;50.30;27.35;;;-0.90;95.70;;;;;;4975180;28;20117;-88
2021/01/25 08:10:09;;;;;;;49.70;27.88;;;-0.90;95.80;;;;;;4989632;28;20023;-89
2021/01/25 08:12:35;;;;;;;55.50;28.80;;;-0.90;95.80;;;;;;4970958;28;20026;-89
2021/01/25 08:15:06;;;;;;;54.05;29.52;;;-0.90;95.80;;;;;;4972079;28;20110;-89
2021/01/25 08:17:35;;;;;;;48.42;27.38;;;-0.90;95.90;;;;;;4982674;28;20050;-88
2021/01/25 08:20:19;;;;;;;52.30;28.95;;;-0.90;95.90;;;;;;4985393;28;20030;-89
2021/01/25 08:22:51;;;;;;;57.28;29.30;;;-0.90;95.90;;;;;;4961756;28;20031;-89
2021/01/25 08:25:20;;;;;;;55.10;31.00;;;-0.90;95.90;;;;;;4967288;28;20032;-86
2021/01/25 08:28:05;;;;;;;55.22;30.02;;;-0.90;95.90;;;;;;4963329;28;20027;-88
2021/01/25 08:30:36;;;;;;;52.42;28.60;;;-0.80;96.00;;;;;;4964104;28;20067;-87
2021/01/25 08:33:03;;;;;;;59.35;31.70;;;-0.80;96.00;;;;;;4972072;28;20494;-89
2021/01/25 08:35:30;;;;;;;52.38;30.00;;;-0.80;96.00;;;;;;4978819;28;20421;-88
2021/01/25 08:38:09;;;;;;;60.13;31.70;;;-0.80;96.00;;;;;;4984361;28;20079;-89
2021/01/25 08:40:38;;;;;;;57.28;30.90;;;-0.70;96.00;;;;;;4974922;28;20037;-89
2021/01/25 08:43:04;;;;;;;56.33;29.92;;;-0.70;96.00;;;;;;4972710;28;20023;-89
2021/01/25 08:45:31;;;;;;;50.58;28.70;;;-0.70;95.90;;;;;;4974608;28;20022;-91
2021/01/25 08:48:04;;;;;;;54.50;29.10;;;-0.70;96.00;;;;;;4975517;28;20031;-89
2021/01/25 08:50:30;;;;;;;52.20;27.98;;;-0.70;96.30;;;;;;4978150;28;20050;-89
2021/01/25 08:53:03;;;;;;;54.97;30.25;;;-0.60;96.10;;;;;;4974235;28;20035;-90
2021/01/25 08:55:38;;;;;;;55.72;32.05;;;-0.60;96.00;;;;;;4973824;28;20403;-89
2021/01/25 08:58:15;;;;;;;65.72;31.83;;;-0.60;96.10;;;;;;4987119;28;20042;-89
2021/01/25 09:00:42;;;;;;;59.00;32.40;;;-0.50;96.10;;;;;;4975132;28;20019;-88
2021/01/25 09:03:11;;;;;;;54.53;31.40;;;-0.40;96.20;;;;;;4977672;28;20395;-90
2021/01/25 09:05:36;;;;;;;59.13;31.85;;;-0.40;96.10;;;;;;4967624;28;20034;-88
2021/01/25 09:08:02;;;;;;;60.55;31.98;;;-0.30;96.10;;;;;;4975193;28;20026;-89
2021/01/25 09:10:28;;;;;;;60.50;31.90;;;-0.20;96.10;;;;;;4974817;28;20034;-89
2021/01/25 09:12:53;;;;;;;61.80;32.65;;;-0.10;96.10;;;;;;4979931;28;20026;-88
2021/01/25 09:15:19;;;;;;;60.15;32.28;;;-0.10;96.10;;;;;;4973844;28;20042;-88
2021/01/25 09:17:45;;;;;;;63.75;34.67;;;0.00;96.00;;;;;;4989520;28;20095;-88
2021/01/25 09:20:11;;;;;;;63.42;34.25;;;0.10;96.00;;;;;;4998507;28;20027;-88
2021/01/25 09:22:37;;;;;;;62.53;33.30;;;0.10;95.90;;;;;;4974527;28;20058;-88
2021/01/25 09:25:05;;;;;;;61.20;36.05;;;0.20;95.90;;;;;;4959550;28;20078;-88
2021/01/25 09:27:31;;;;;;;74.25;37.30;;;0.30;95.80;;;;;;4965535;28;20398;-88
2021/01/25 09:29:57;;;;;;;61.38;35.50;;;0.40;95.80;;;;;;4966036;28;20035;-89
2021/01/25 09:32:22;;;;;;;60.15;33.70;;;0.40;95.80;;;;;;4975938;28;20124;-88
2021/01/25 09:34:48;;;;;;;58.15;32.05;;;0.50;95.70;;;;;;4973211;28;20121;-87
2021/01/25 09:37:14;;;;;;;63.33;34.92;;;0.60;95.60;;;;;;4975184;28;20143;-84
2021/01/25 09:39:40;;;;;;;55.97;30.08;;;0.60;95.60;;;;;;4989126;28;20038;-88
2021/01/25 09:42:06;;;;;;;56.13;30.20;;;0.70;95.60;;;;;;4990935;28;20448;-89
2021/01/25 09:44:34;;;;;;;56.20;31.08;;;0.70;95.50;;;;;;4986570;28;20114;-89
2021/01/25 09:46:59;;;;;;;51.53;30.60;;;0.80;95.50;;;;;;4963463;28;20115;-88
2021/01/25 09:49:25;;;;;;;59.00;32.70;;;0.90;95.50;;;;;;4988873;28;20037;-88
2021/01/25 09:51:51;;;;;;;54.67;29.50;;;1.00;95.40;;;;;;4981686;28;20030;-88
2021/01/25 09:54:17;;;;;;;52.10;29.52;;;1.00;95.40;;;;;;4981526;28;20034;-88
2021/01/25 09:56:43;;;;;;;49.40;28.58;;;1.10;95.30;;;;;;4998571;28;20034;-88
2021/01/25 09:59:09;;;;;;;54.05;27.83;;;1.20;95.30;;;;;;4991948;28;20025;-89
2021/01/25 10:01:34;;;;;;;45.25;24.85;;;1.30;95.30;;;;;;4974257;28;20023;-89
2021/01/25 10:04:00;;;;;;;59.90;27.95;;;1.40;95.20;;;;;;5020179;28;20041;-89
2021/01/25 10:06:29;;;;;;;50.13;28.20;;;1.40;95.10;;;;;;5038523;28;20021;-87
2021/01/25 10:08:55;;;;;;;52.08;28.27;;;1.50;95.00;;;;;;4985742;28;20026;-89
2021/01/25 10:11:21;;;;;;;52.03;26.75;;;1.50;94.90;;;;;;4979348;28;20037;-88
2021/01/25 10:13:46;;;;;;;43.25;25.58;;;1.50;94.90;;;;;;4984758;28;20361;-87
2021/01/25 10:16:12;;;;;;;40.60;22.88;;;1.60;94.90;;;;;;4965343;28;20411;-88
2021/01/25 10:18:37;;;;;;;43.00;24.70;;;1.60;94.80;;;;;;4971491;28;20042;-89
2021/01/25 10:21:03;;;;;;;42.78;23.80;;;1.70;94.80;;;;;;4960942;28;20027;-87
2021/01/25 10:23:29;;;;;;;36.58;21.10;;;1.80;95.10;;;;;;4963488;28;20034;-88
2021/01/25 10:25:55;;;;;;;36.45;22.17;;;1.90;94.70;;;;;;5026347;28;20059;-88
2021/01/25 10:28:21;;;;;;;39.90;22.10;;;1.90;94.60;;;;;;4970685;28;20491;-88
2021/01/25 10:30:48;;;;;;;39.05;23.20;;;2.00;94.60;;;;;;5035393;28;20125;-88
2021/01/25 10:33:14;;;;;;;40.58;21.08;;;2.00;94.50;;;;;;5034115;28;20040;-89
2021/01/25 10:35:39;;;;;;;45.72;25.73;;;2.10;94.50;;;;;;5003058;28;20027;-88
2021/01/25 10:38:05;;;;;;;42.85;22.90;;;2.10;94.30;;;;;;4974895;28;20043;-88
2021/01/25 10:40:31;;;;;;;42.85;22.27;;;2.20;94.30;;;;;;4987884;28;20069;-88
2021/01/25 10:42:58;;;;;;;45.58;27.15;;;2.20;94.30;;;;;;4972361;28;20034;-88
2021/01/25 10:45:23;;;;;;;40.97;23.58;;;2.30;94.30;;;;;;4970945;28;20027;-88
2021/01/25 10:47:49;;;;;;;44.85;26.95;;;2.30;94.30;;;;;;4971033;28;20031;-88
2021/01/25 10:50:16;;;;;;;41.17;23.38;;;2.40;94.20;;;;;;4971519;28;20360;-88
2021/01/25 10:52:43;;;;;;;42.25;25.42;;;2.40;94.10;;;;;;4974117;28;20027;-88
2021/01/25 10:55:09;;;;;;;45.22;25.85;;;2.50;94.20;;;;;;4971839;28;20023;-88
2021/01/25 10:57:34;;;;;;;44.47;25.05;;;2.50;94.10;;;;;;4977188;28;20095;-88
2021/01/25 11:00:02;;;;;;;39.25;24.52;;;2.60;94.10;;;;;;4970431;28;20030;-88
2021/01/25 11:02:28;;;;;;;38.17;22.58;;;2.60;94.00;;;;;;4972419;28;20387;-88
2021/01/25 11:04:54;;;;;;;40.60;23.20;;;2.70;94.00;;;;;;4972637;28;20027;-88
2021/01/25 11:07:19;;;;;;;39.28;24.02;;;2.70;94.00;;;;;;4968886;28;20027;-89
2021/01/25 11:09:45;;;;;;;34.20;21.85;;;2.80;93.90;;;;;;4971529;28;20053;-89
2021/01/25 11:12:10;;;;;;;34.17;20.55;;;2.80;93.90;;;;;;4971479;28;20031;-88
2021/01/25 11:14:35;;;;;;;33.08;19.77;;;2.90;93.90;;;;;;4986203;28;20019;-88
2021/01/25 11:17:01;;;;;;;33.13;19.33;;;2.90;93.80;;;;;;4973733;28;20062;-87
2021/01/25 11:19:26;;;;;;;31.02;17.35;;;2.90;93.80;;;;;;4975961;28;20456;-88
2021/01/25 11:21:52;;;;;;;26.10;14.00;;;3.00;93.70;;;;;;4980420;28;20019;-88
2021/01/25 11:24:18;;;;;;;23.92;13.73;;;3.00;93.70;;;;;;4980039;28;20026;-88
2021/01/25 11:26:43;;;;;;;24.02;12.93;;;3.10;93.70;;;;;;4988506;28;20047;-89
2021/01/25 11:29:10;;;;;;;21.67;12.90;;;3.20;93.60;;;;;;4976193;28;20038;-88
2021/01/25 11:31:36;;;;;;;22.20;11.13;;;3.20;93.40;;;;;;4967823;28;20121;-89
2021/01/25 11:34:02;;;;;;;18.73;10.73;;;3.30;93.30;;;;;;4974760;28;20483;-89
2021/01/25 11:36:28;;;;;;;18.73;9.02;;;3.40;93.20;;;;;;4974782;28;20019;-89
2021/01/25 11:38:53;;;;;;;16.27;8.88;;;3.40;92.90;;;;;;4977930;28;20142;-87
2021/01/25 11:41:19;;;;;;;15.43;8.68;;;3.40;92.90;;;;;;4975785;28;20031;-89
2021/01/25 11:43:45;;;;;;;14.35;7.65;;;3.50;92.60;;;;;;4971040;28;20039;-89
2021/01/25 11:46:11;;;;;;;13.65;8.38;;;3.50;92.40;;;;;;4968360;28;20425;-90
2021/01/25 11:48:37;;;;;;;14.07;8.02;;;3.50;92.40;;;;;;4968585;28;20495;-90
2021/01/25 11:51:03;;;;;;;15.85;7.82;;;3.50;92.40;;;;;;4990185;28;20152;-91
2021/01/25 11:53:30;;;;;;;16.33;8.55;;;3.60;92.10;;;;;;4978062;28;20040;-89
2021/01/25 11:55:56;;;;;;;14.00;7.78;;;3.70;92.10;;;;;;4977889;28;20503;-90
2021/01/25 11:58:21;;;;;;;13.65;7.53;;;3.70;92.20;;;;;;4995359;28;20081;-90
2021/01/25 12:00:47;;;;;;;17.98;8.30;;;3.70;92.00;;;;;;4979913;28;20023;-90
2021/01/25 12:03:40;;;;;;;13.68;7.90;;;3.80;91.80;;;;;;4969966;28;20026;-90
2021/01/25 12:06:06;;;;;;;14.45;7.93;;;3.80;91.60;;;;;;4977097;28;20494;-90
2021/01/25 12:08:35;;;;;;;16.48;7.70;;;3.90;91.50;;;;;;4995506;28;20036;-89
2021/01/25 12:11:01;;;;;;;12.70;7.07;;;3.90;91.40;;;;;;4970802;28;20037;-90
2021/01/25 12:13:27;;;;;;;13.68;7.65;;;4.00;91.40;;;;;;5016414;28;20033;-90
2021/01/25 12:15:53;;;;;;;13.70;7.93;;;4.00;91.40;;;;;;4970915;28;20080;-90
2021/01/25 12:18:18;;;;;;;12.88;8.48;;;4.00;90.70;;;;;;4975601;28;20404;-90
2021/01/25 12:20:44;;;;;;;12.57;6.65;;;4.00;90.60;;;;;;4969734;28;20023;-90
2021/01/25 12:23:10;;;;;;;12.82;7.40;;;4.10;90.60;;;;;;4975045;28;20054;-89
2021/01/25 12:25:35;;;;;;;11.07;6.80;;;4.10;90.50;;;;;;4965274;28;20027;-90
2021/01/25 12:28:01;;;;;;;15.73;7.50;;;4.20;90.60;;;;;;4985786;28;20419;-90
2021/01/25 12:30:26;;;;;;;13.05;7.25;;;4.20;90.40;;;;;;4972708;28;20103;-89
2021/01/25 12:32:52;;;;;;;13.90;6.40;;;4.20;90.50;;;;;;4971432;28;20031;-89
2021/01/25 12:35:19;;;;;;;14.27;7.30;;;4.30;90.40;;;;;;5000739;28;20045;-90
2021/01/25 12:37:45;;;;;;;14.88;7.75;;;4.40;90.40;;;;;;4989861;28;20039;-90